createdAt,value
2023-01-17T00:00:20.060Z,479.19
2023-01-17T00:01:20.013Z,477.15
2023-01-17T00:02:20.063Z,474.79
2023-01-17T00:03:19.939Z,469.81
2023-01-17T00:04:19.978Z,466.22
2023-01-17T00:05:19.919Z,463.33
2023-01-17T00:06:19.931Z,461.42
2023-01-17T00:07:19.926Z,455.79
2023-01-17T00:08:19.922Z,452.41
2023-01-17T00:09:19.871Z,444.33
2023-01-17T00:10:19.871Z,440.83
2023-01-17T00:11:19.840Z,441.99
2023-01-17T00:12:19.851Z,446.40
2023-01-17T00:13:19.846Z,447.59
2023-01-17T00:14:19.927Z,444.92
2023-01-17T00:15:19.893Z,444.62
2023-01-17T00:16:20.021Z,442.57
2023-01-17T00:17:19.781Z,437.39
2023-01-17T00:18:19.792Z,435.69
2023-01-17T00:19:19.931Z,435.40
2023-01-17T00:20:20.338Z,431.49
2023-01-17T00:21:19.730Z,429.83
2023-01-17T00:22:19.937Z,431.49
2023-01-17T00:23:19.722Z,437.96
2023-01-17T00:24:19.724Z,440.25
2023-01-17T00:25:19.905Z,442.87
2023-01-17T00:26:19.731Z,441.99
2023-01-17T00:27:19.668Z,448.78
2023-01-17T00:28:19.754Z,449.38
2023-01-17T00:29:19.650Z,448.48
2023-01-17T00:30:19.941Z,453.94
2023-01-17T00:31:19.986Z,457.34
2023-01-17T00:32:19.609Z,459.84
2023-01-17T00:33:19.601Z,458.27
2023-01-17T00:34:19.630Z,460.79
2023-01-17T00:35:19.566Z,455.79
2023-01-17T00:36:19.953Z,454.24
2023-01-17T00:37:19.942Z,449.38
2023-01-17T00:38:19.947Z,448.48
2023-01-17T00:39:19.522Z,450.59
2023-01-17T00:40:19.536Z,451.50
2023-01-17T00:41:19.925Z,454.86
2023-01-17T00:42:19.512Z,457.65
2023-01-17T00:43:19.503Z,460.16
2023-01-17T00:44:19.971Z,461.10
2023-01-17T00:45:19.468Z,465.90
2023-01-17T00:46:19.596Z,465.25
2023-01-17T00:47:19.441Z,465.90
2023-01-17T00:48:19.431Z,464.61
2023-01-17T00:49:19.411Z,461.10
2023-01-17T00:50:19.412Z,455.17
2023-01-17T00:51:19.385Z,455.48
2023-01-17T00:52:19.572Z,450.89
2023-01-17T00:53:19.369Z,446.99
2023-01-17T00:54:19.605Z,440.83
2023-01-17T00:55:19.584Z,434.56
2023-01-17T00:56:19.337Z,431.21
2023-01-17T00:57:19.368Z,430.11
2023-01-17T00:58:19.329Z,430.38
2023-01-17T00:59:19.296Z,434.28
2023-01-17T01:00:19.318Z,435.69
2023-01-17T01:01:19.429Z,434.00
2023-01-17T01:02:19.405Z,433.44
2023-01-17T01:03:19.283Z,432.32
2023-01-17T01:04:19.265Z,432.32
2023-01-17T01:05:19.242Z,433.72
2023-01-17T01:06:19.231Z,434.00
2023-01-17T01:07:19.205Z,441.99
2023-01-17T01:08:19.369Z,445.21
2023-01-17T01:09:19.177Z,447.29
2023-01-17T01:10:19.216Z,446.69
2023-01-17T01:11:19.262Z,448.78
2023-01-17T01:12:19.171Z,456.40
2023-01-17T01:13:19.136Z,457.02
2023-01-17T01:14:19.675Z,462.69
2023-01-17T01:15:19.119Z,468.83
2023-01-17T01:16:19.794Z,472.79
2023-01-17T01:17:19.080Z,478.51
2023-01-17T01:18:19.736Z,485.77
2023-01-17T01:19:19.065Z,495.08
2023-01-17T01:20:19.081Z,500.24
2023-01-17T01:21:19.354Z,503.24
2023-01-17T01:22:19.046Z,503.62
2023-01-17T01:23:19.102Z,512.06
2023-01-17T01:24:19.792Z,514.81
2023-01-17T01:25:19.002Z,520.39
2023-01-17T01:26:19.002Z,521.20
2023-01-17T01:27:18.977Z,519.19
2023-01-17T01:28:18.984Z,523.64
2023-01-17T01:29:18.983Z,529.00
2023-01-17T01:30:18.968Z,534.47
2023-01-17T01:31:19.027Z,538.76
2023-01-17T01:32:18.996Z,534.04
2023-01-17T01:33:18.938Z,533.20
2023-01-17T01:34:18.985Z,532.35
2023-01-17T01:35:18.988Z,529.00
2023-01-17T01:36:18.893Z,524.46
2023-01-17T01:37:18.851Z,518.79
2023-01-17T01:38:18.865Z,515.60
2023-01-17T01:39:18.944Z,516.39
2023-01-17T01:40:18.975Z,514.81
2023-01-17T01:41:18.807Z,514.42
2023-01-17T01:42:19.046Z,519.59
2023-01-17T01:43:18.786Z,518.39
2023-01-17T01:44:18.796Z,523.23
2023-01-17T01:45:19.129Z,528.58
2023-01-17T01:46:18.771Z,524.46
2023-01-17T01:47:18.745Z,523.64
2023-01-17T01:48:18.773Z,524.86
2023-01-17T01:49:18.706Z,528.58
2023-01-17T01:50:18.912Z,527.75
2023-01-17T01:51:19.002Z,535.75
2023-01-17T01:52:18.703Z,544.87
2023-01-17T01:53:18.670Z,550.23
2023-01-17T01:54:18.692Z,555.23
2023-01-17T01:55:18.679Z,568.86
2023-01-17T01:56:18.763Z,573.72
2023-01-17T01:57:18.632Z,583.18
2023-01-17T01:58:18.823Z,589.84
2023-01-17T01:59:18.837Z,605.80
2023-01-17T02:00:18.616Z,609.09
2023-01-17T02:01:18.691Z,624.96
2023-01-17T02:02:18.626Z,640.45
2023-01-17T02:03:18.704Z,663.21
2023-01-17T02:04:18.890Z,670.49
2023-01-17T02:05:18.523Z,678.61
2023-01-17T02:06:19.008Z,692.61
2023-01-17T02:07:18.505Z,704.96
2023-01-17T02:08:18.515Z,712.44
2023-01-17T02:09:19.006Z,729.46
2023-01-17T02:10:18.513Z,743.99
2023-01-17T02:11:18.472Z,756.89
2023-01-17T02:12:18.946Z,769.89
2023-01-17T02:13:18.434Z,780.16
2023-01-17T02:14:19.402Z,801.07
2023-01-17T02:15:18.784Z,817.63
2023-01-17T02:16:18.445Z,833.85
2023-01-17T02:17:18.385Z,846.44
2023-01-17T02:18:18.396Z,855.05
2023-01-17T02:19:19.018Z,869.99
2023-01-17T02:20:18.519Z,880.81
2023-01-17T02:21:18.345Z,902.08
2023-01-17T02:22:18.975Z,908.78
2023-01-17T02:23:19.018Z,920.60
2023-01-17T02:24:18.451Z,926.31
2023-01-17T02:25:18.304Z,942.54
2023-01-17T02:26:18.309Z,953.22
2023-01-17T02:27:18.274Z,968.32
2023-01-17T02:28:18.407Z,974.64
2023-01-17T02:29:18.243Z,979.61
2023-01-17T02:30:18.457Z,981.03
2023-01-17T02:31:18.311Z,992.62
2023-01-17T02:32:18.240Z,1005.98
2023-01-17T02:33:18.190Z,1012.80
2023-01-17T02:34:18.221Z,1011.28
2023-01-17T02:35:18.601Z,1002.98
2023-01-17T02:36:18.635Z,993.35
2023-01-17T02:37:18.167Z,980.32
2023-01-17T02:38:18.698Z,966.23
2023-01-17T02:39:18.138Z,962.09
2023-01-17T02:40:18.140Z,955.26
2023-01-17T02:41:18.125Z,946.52
2023-01-17T02:42:18.128Z,955.26
2023-01-17T02:43:18.320Z,939.24
2023-01-17T02:44:18.098Z,934.03
2023-01-17T02:45:18.908Z,925.67
2023-01-17T02:46:18.076Z,937.28
2023-01-17T02:47:18.036Z,949.86
2023-01-17T02:48:18.070Z,951.88
2023-01-17T02:49:18.038Z,949.86
2023-01-17T02:50:18.049Z,947.85
2023-01-17T02:51:17.993Z,962.09
2023-01-17T02:52:18.040Z,964.85
2023-01-17T02:53:17.995Z,962.78
2023-01-17T02:54:18.009Z,960.71
2023-01-17T02:55:18.288Z,955.26
2023-01-17T02:56:17.974Z,949.19
2023-01-17T02:57:17.924Z,948.52
2023-01-17T02:58:17.945Z,944.52
2023-01-17T02:59:17.914Z,945.19
2023-01-17T03:00:18.058Z,949.86
2023-01-17T03:01:18.529Z,947.18
2023-01-17T03:02:18.130Z,940.56
2023-01-17T03:03:17.866Z,949.19
2023-01-17T03:04:17.967Z,951.88
2023-01-17T03:05:20.196Z,941.88
2023-01-17T03:06:17.860Z,947.18
2023-01-17T03:07:18.301Z,941.88
2023-01-17T03:08:18.050Z,937.93
2023-01-17T03:09:17.794Z,920.60
2023-01-17T03:10:18.066Z,909.40
2023-01-17T03:11:18.316Z,898.46
2023-01-17T03:12:17.773Z,884.29
2023-01-17T03:13:17.743Z,862.73
2023-01-17T03:14:17.751Z,840.62
2023-01-17T03:15:17.805Z,818.62
2023-01-17T03:16:17.873Z,797.75
2023-01-17T03:17:17.708Z,768.57
2023-01-17T03:18:17.709Z,748.47
2023-01-17T03:19:17.683Z,727.87
2023-01-17T03:20:17.703Z,710.18
2023-01-17T03:21:17.653Z,695.47
2023-01-17T03:22:17.671Z,685.54
2023-01-17T03:23:18.042Z,668.48
2023-01-17T03:24:17.638Z,656.72
2023-01-17T03:25:17.627Z,644.13
2023-01-17T03:26:17.647Z,638.01
2023-01-17T03:27:17.585Z,626.71
2023-01-17T03:28:17.600Z,622.06
2023-01-17T03:29:18.065Z,612.98
2023-01-17T03:30:17.576Z,609.64
2023-01-17T03:31:17.542Z,599.85
2023-01-17T03:32:18.068Z,592.96
2023-01-17T03:33:17.522Z,592.96
2023-01-17T03:34:17.653Z,585.22
2023-01-17T03:35:17.973Z,575.20
2023-01-17T03:36:17.986Z,565.99
2023-01-17T03:37:18.075Z,561.26
2023-01-17T03:38:17.667Z,552.04
2023-01-17T03:39:17.448Z,547.09
2023-01-17T03:40:17.467Z,541.36
2023-01-17T03:41:17.477Z,538.32
2023-01-17T03:42:17.510Z,535.75
2023-01-17T03:43:17.406Z,531.09
2023-01-17T03:44:17.431Z,530.25
2023-01-17T03:45:17.451Z,524.05
2023-01-17T03:46:17.371Z,520.39
2023-01-17T03:47:17.642Z,511.28
2023-01-17T03:48:17.657Z,509.35
2023-01-17T03:49:17.350Z,505.13
2023-01-17T03:50:17.713Z,501.74
2023-01-17T03:51:17.454Z,500.99
2023-01-17T03:52:17.306Z,499.87
2023-01-17T03:53:17.429Z,497.28
2023-01-17T03:54:17.292Z,494.35
2023-01-17T03:55:17.304Z,489.31
2023-01-17T03:56:17.282Z,486.48
2023-01-17T03:57:17.893Z,481.25
2023-01-17T03:58:17.923Z,473.12
2023-01-17T03:59:17.944Z,466.22
2023-01-17T04:00:17.965Z,463.65
2023-01-17T04:01:17.820Z,456.10
2023-01-17T04:02:17.235Z,449.68
2023-01-17T04:03:17.273Z,441.12
2023-01-17T04:04:17.281Z,434.84
2023-01-17T04:05:17.322Z,430.38
2023-01-17T04:06:17.351Z,427.10
2023-01-17T04:07:17.388Z,426.29
2023-01-17T04:08:17.139Z,420.68
2023-01-17T04:09:17.133Z,418.58
2023-01-17T04:10:17.098Z,429.01
2023-01-17T04:11:17.118Z,426.02
2023-01-17T04:12:17.099Z,429.28
2023-01-17T04:13:17.089Z,430.11
2023-01-17T04:14:17.095Z,432.60
2023-01-17T04:15:17.098Z,428.73
2023-01-17T04:16:17.140Z,424.94
2023-01-17T04:17:17.039Z,423.33
2023-01-17T04:18:17.102Z,427.10
2023-01-17T04:19:17.101Z,437.39
2023-01-17T04:20:16.985Z,443.45
2023-01-17T04:21:17.106Z,450.29
2023-01-17T04:22:16.990Z,454.24
2023-01-17T04:23:16.972Z,456.71
2023-01-17T04:24:18.059Z,467.85
2023-01-17T04:25:16.949Z,477.15
2023-01-17T04:26:16.938Z,482.98
2023-01-17T04:27:17.031Z,494.72
2023-01-17T04:28:17.115Z,493.63
2023-01-17T04:29:17.109Z,485.77
2023-01-17T04:30:17.114Z,479.88
2023-01-17T04:31:17.293Z,471.46
2023-01-17T04:32:17.171Z,460.16
2023-01-17T04:33:17.034Z,447.89
2023-01-17T04:34:16.842Z,429.56
2023-01-17T04:35:16.891Z,417.02
2023-01-17T04:36:16.879Z,391.51
2023-01-17T04:37:16.815Z,368.72
2023-01-17T04:38:16.788Z,355.24
2023-01-17T04:39:16.980Z,346.68
2023-01-17T04:40:16.765Z,348.50
2023-01-17T04:41:16.763Z,349.61
2023-01-17T04:42:16.755Z,348.14
2023-01-17T04:43:17.081Z,344.15
2023-01-17T04:44:16.731Z,345.95
2023-01-17T04:45:17.114Z,351.47
2023-01-17T04:46:17.157Z,357.55
2023-01-17T04:47:16.719Z,364.65
2023-01-17T04:48:16.667Z,369.13
2023-01-17T04:49:16.683Z,381.07
2023-01-17T04:50:16.645Z,395.19
2023-01-17T04:51:16.674Z,402.77
2023-01-17T04:52:16.742Z,410.15
2023-01-17T04:53:16.635Z,414.96
2023-01-17T04:54:16.611Z,425.75
2023-01-17T04:55:16.605Z,425.75
2023-01-17T04:56:16.891Z,428.19
2023-01-17T04:57:16.578Z,432.60
2023-01-17T04:58:16.566Z,431.77
2023-01-17T04:59:16.963Z,431.77
2023-01-17T05:00:16.835Z,426.29
2023-01-17T05:01:16.671Z,425.48
2023-01-17T05:02:16.581Z,423.33
2023-01-17T05:03:16.522Z,420.68
2023-01-17T05:04:16.500Z,417.54
2023-01-17T05:05:16.484Z,403.74
2023-01-17T05:06:16.475Z,388.34
2023-01-17T05:07:17.137Z,371.62
2023-01-17T05:08:17.130Z,359.89
2023-01-17T05:09:16.472Z,355.24
2023-01-17T05:10:16.418Z,348.87
2023-01-17T05:11:16.472Z,347.04
2023-01-17T05:12:16.401Z,347.77
2023-01-17T05:13:16.402Z,343.43
2023-01-17T05:14:16.369Z,347.77
2023-01-17T05:15:17.144Z,349.61
2023-01-17T05:16:16.461Z,353.72
2023-01-17T05:17:17.149Z,354.10
2023-01-17T05:18:16.331Z,354.10
2023-01-17T05:19:16.332Z,354.86
2023-01-17T05:20:17.109Z,357.16
2023-01-17T05:21:16.313Z,353.72
2023-01-17T05:22:16.283Z,352.97
2023-01-17T05:23:17.150Z,349.24
2023-01-17T05:24:16.266Z,347.77
2023-01-17T05:25:16.253Z,348.50
2023-01-17T05:26:17.039Z,344.15
2023-01-17T05:27:16.244Z,338.86
2023-01-17T05:28:16.226Z,334.40
2023-01-17T05:29:16.270Z,331.39
2023-01-17T05:30:16.190Z,326.15
2023-01-17T05:31:16.216Z,320.15
2023-01-17T05:32:16.184Z,314.97
2023-01-17T05:33:16.173Z,312.58
2023-01-17T05:34:16.139Z,308.21
2023-01-17T05:35:16.152Z,305.08
2023-01-17T05:36:16.270Z,303.12
2023-01-17T05:37:16.138Z,301.19
2023-01-17T05:38:16.105Z,289.84
2023-01-17T05:39:16.157Z,286.32
2023-01-17T05:40:16.078Z,282.17
2023-01-17T05:41:16.073Z,278.13
2023-01-17T05:42:16.150Z,274.67
2023-01-17T05:43:16.064Z,272.85
2023-01-17T05:44:16.055Z,271.06
2023-01-17T05:45:16.041Z,266.26
2023-01-17T05:46:16.082Z,263.92
2023-01-17T05:47:16.165Z,258.35
2023-01-17T05:48:15.991Z,255.95
2023-01-17T05:49:15.992Z,251.28
2023-01-17T05:50:15.961Z,249.20
2023-01-17T05:51:15.973Z,246.78
2023-01-17T05:52:15.935Z,246.04
2023-01-17T05:53:15.938Z,244.41
2023-01-17T05:54:15.943Z,239.80
2023-01-17T05:55:16.167Z,234.36
2023-01-17T05:56:15.957Z,227.90
2023-01-17T05:57:15.902Z,223.13
2023-01-17T05:58:15.881Z,218.41
2023-01-17T05:59:18.776Z,217.69
2023-01-17T06:00:15.870Z,222.38
2023-01-17T06:01:15.910Z,224.64
2023-01-17T06:02:15.842Z,226.80
2023-01-17T06:03:16.174Z,227.27
2023-01-17T06:04:15.837Z,221.33
2023-01-17T06:05:15.821Z,209.41
2023-01-17T06:06:15.780Z,193.60
2023-01-17T06:07:15.792Z,181.17
2023-01-17T06:08:15.765Z,164.83
2023-01-17T06:09:15.756Z,153.26
2023-01-17T06:10:15.743Z,143.21
2023-01-17T06:11:16.191Z,135.91
2023-01-17T06:12:15.720Z,126.69
2023-01-17T06:13:15.726Z,120.00
2023-01-17T06:14:15.696Z,113.90
2023-01-17T06:15:15.735Z,108.26
2023-01-17T06:16:15.704Z,103.72
2023-01-17T06:17:15.691Z,103.91
2023-01-17T06:18:15.656Z,108.12
2023-01-17T06:19:15.815Z,111.79
2023-01-17T06:20:15.657Z,113.67
2023-01-17T06:21:15.629Z,114.29
2023-01-17T06:22:15.602Z,114.14
2023-01-17T06:23:15.600Z,108.54
2023-01-17T06:24:15.585Z,104.23
2023-01-17T06:25:15.590Z,101.22
2023-01-17T06:26:15.560Z,100.01
2023-01-17T06:27:15.575Z,99.78
2023-01-17T06:28:15.533Z,98.66
2023-01-17T06:29:15.543Z,97.92
2023-01-17T06:30:15.518Z,96.40
2023-01-17T06:31:15.577Z,94.45
2023-01-17T06:32:15.534Z,94.96
2023-01-17T06:33:15.506Z,93.48
2023-01-17T06:34:15.485Z,91.95
2023-01-17T06:35:15.976Z,90.17
2023-01-17T06:36:15.461Z,87.72
2023-01-17T06:37:15.462Z,85.24
2023-01-17T06:38:15.430Z,82.47
2023-01-17T06:39:15.432Z,79.74
2023-01-17T06:40:16.103Z,77.25
2023-01-17T06:41:15.419Z,75.17
2023-01-17T06:42:15.381Z,72.83
2023-01-17T06:43:16.186Z,71.59
2023-01-17T06:44:15.351Z,69.57
2023-01-17T06:45:16.134Z,68.22
2023-01-17T06:46:16.055Z,67.08
2023-01-17T06:47:15.362Z,65.71
2023-01-17T06:48:15.534Z,64.65
2023-01-17T06:49:15.324Z,63.91
2023-01-17T06:50:15.298Z,63.00
2023-01-17T06:51:16.051Z,62.21
2023-01-17T06:52:16.207Z,61.30
2023-01-17T06:53:15.532Z,60.42
2023-01-17T06:54:15.993Z,59.31
2023-01-17T06:55:16.180Z,57.92
2023-01-17T06:56:16.076Z,57.21
2023-01-17T06:57:15.721Z,56.56
2023-01-17T06:58:16.208Z,55.96
2023-01-17T06:59:15.232Z,55.92
2023-01-17T07:00:15.185Z,55.11
2023-01-17T07:01:15.263Z,54.72
2023-01-17T07:02:15.325Z,54.19
2023-01-17T07:03:15.222Z,54.08
2023-01-17T07:04:15.409Z,53.40
2023-01-17T07:05:15.444Z,53.36
2023-01-17T07:06:15.213Z,52.96
2023-01-17T07:07:15.221Z,52.83
2023-01-17T07:08:15.218Z,52.69
2023-01-17T07:09:15.225Z,52.99
2023-01-17T07:10:15.228Z,53.23
2023-01-17T07:11:15.226Z,53.40
2023-01-17T07:12:15.221Z,53.74
2023-01-17T07:13:15.220Z,53.23
2023-01-17T07:14:15.223Z,53.03
2023-01-17T07:15:15.062Z,53.06
2023-01-17T07:16:15.057Z,52.66
2023-01-17T07:17:15.057Z,52.17
2023-01-17T07:18:15.074Z,52.04
2023-01-17T07:19:15.104Z,51.53
2023-01-17T07:20:15.060Z,51.19
2023-01-17T07:21:15.168Z,50.91
2023-01-17T07:22:15.177Z,50.45
2023-01-17T07:23:15.210Z,50.39
2023-01-17T07:24:14.911Z,50.21
2023-01-17T07:25:15.246Z,50.00
2023-01-17T07:26:14.905Z,49.59
2023-01-17T07:27:14.894Z,49.30
2023-01-17T07:28:14.855Z,49.38
2023-01-17T07:29:14.855Z,48.81
2023-01-17T07:30:15.218Z,48.92
2023-01-17T07:31:14.888Z,48.87
2023-01-17T07:32:14.824Z,48.53
2023-01-17T07:33:14.826Z,48.42
2023-01-17T07:34:14.800Z,48.19
2023-01-17T07:35:14.806Z,48.25
2023-01-17T07:36:15.242Z,48.28
2023-01-17T07:37:15.469Z,47.84
2023-01-17T07:38:15.589Z,47.76
2023-01-17T07:39:15.240Z,47.57
2023-01-17T07:40:14.731Z,47.65
2023-01-17T07:41:14.731Z,47.73
2023-01-17T07:42:14.741Z,47.43
2023-01-17T07:43:14.713Z,47.41
2023-01-17T07:44:14.681Z,47.33
2023-01-17T07:45:14.691Z,47.06
2023-01-17T07:46:14.713Z,46.90
2023-01-17T07:47:14.689Z,47.03
2023-01-17T07:48:14.658Z,46.80
2023-01-17T07:49:14.637Z,46.49
2023-01-17T07:50:14.616Z,46.49
2023-01-17T07:51:14.623Z,46.34
2023-01-17T07:52:16.307Z,46.59
2023-01-17T07:53:14.620Z,46.13
2023-01-17T07:54:15.053Z,46.03
2023-01-17T07:55:15.262Z,45.93
2023-01-17T07:56:14.570Z,46.39
2023-01-17T07:57:14.548Z,46.54
2023-01-17T07:58:14.532Z,46.75
2023-01-17T07:59:15.267Z,47.11
2023-01-17T08:00:14.514Z,47.17
2023-01-17T08:01:14.595Z,47.06
2023-01-17T08:02:15.371Z,47.01
2023-01-17T08:03:15.260Z,46.90
2023-01-17T08:04:14.537Z,46.75
2023-01-17T08:05:14.448Z,46.85
2023-01-17T08:06:15.519Z,46.49
2023-01-17T08:07:14.443Z,46.70
2023-01-17T08:08:17.093Z,46.44
2023-01-17T08:09:14.419Z,46.23
2023-01-17T08:10:15.633Z,46.39
2023-01-17T08:11:14.414Z,46.70
2023-01-17T08:12:14.394Z,46.80
2023-01-17T08:13:14.367Z,46.80
2023-01-17T08:14:14.379Z,46.90
2023-01-17T08:15:14.538Z,47.14
2023-01-17T08:16:14.575Z,47.33
2023-01-17T08:17:14.320Z,47.76
2023-01-17T08:18:14.617Z,48.08
2023-01-17T08:19:14.299Z,48.75
2023-01-17T08:20:14.673Z,49.59
2023-01-17T08:21:14.282Z,51.22
2023-01-17T08:22:14.293Z,55.70
2023-01-17T08:23:14.238Z,62.03
2023-01-17T08:24:14.263Z,69.00
2023-01-17T08:25:14.230Z,76.26
2023-01-17T08:26:14.311Z,83.87
2023-01-17T08:27:14.213Z,90.66
2023-01-17T08:28:14.201Z,95.80
2023-01-17T08:29:14.195Z,99.54
2023-01-17T08:30:14.183Z,101.46
2023-01-17T08:31:14.195Z,99.54
2023-01-17T08:32:14.173Z,96.68
2023-01-17T08:33:14.141Z,95.28
2023-01-17T08:34:14.271Z,93.58
2023-01-17T08:35:14.127Z,92.15
2023-01-17T08:36:14.115Z,90.27
2023-01-17T08:37:14.079Z,89.12
2023-01-17T08:38:14.087Z,87.82
2023-01-17T08:39:14.891Z,87.27
2023-01-17T08:40:14.071Z,87.82
2023-01-17T08:41:14.044Z,90.76
2023-01-17T08:42:14.132Z,92.86
2023-01-17T08:43:14.280Z,94.00
2023-01-17T08:44:14.026Z,94.75
2023-01-17T08:45:14.278Z,94.88
2023-01-17T08:46:14.055Z,96.24
2023-01-17T08:47:14.188Z,97.35
2023-01-17T08:48:13.980Z,98.20
2023-01-17T08:49:14.280Z,98.78
2023-01-17T08:50:14.300Z,100.79
2023-01-17T08:51:14.291Z,105.28
2023-01-17T08:52:14.291Z,111.34
2023-01-17T08:53:13.901Z,115.87
2023-01-17T08:54:13.910Z,122.45
2023-01-17T08:55:13.886Z,130.53
2023-01-17T08:56:14.301Z,136.35
2023-01-17T08:57:13.857Z,143.45
2023-01-17T08:58:14.295Z,148.78
2023-01-17T08:59:14.322Z,153.40
2023-01-17T09:00:14.233Z,159.36
2023-01-17T09:01:13.921Z,163.54
2023-01-17T09:02:13.829Z,167.96
2023-01-17T09:03:13.789Z,171.38
2023-01-17T09:04:13.864Z,180.97
2023-01-17T09:05:13.819Z,188.52
2023-01-17T09:06:13.859Z,193.82
2023-01-17T09:07:13.758Z,190.36
2023-01-17T09:08:13.901Z,184.15
2023-01-17T09:09:13.740Z,178.86
2023-01-17T09:10:13.711Z,178.86
2023-01-17T09:11:13.685Z,175.86
2023-01-17T09:12:13.723Z,176.42
2023-01-17T09:13:13.665Z,176.42
2023-01-17T09:14:14.039Z,178.29
2023-01-17T09:15:14.072Z,177.16
2023-01-17T09:16:13.750Z,175.86
2023-01-17T09:17:14.612Z,173.68
2023-01-17T09:18:13.647Z,171.21
2023-01-17T09:19:13.603Z,169.14
2023-01-17T09:20:13.616Z,167.96
2023-01-17T09:21:13.580Z,168.97
2023-01-17T09:22:14.257Z,170.68
2023-01-17T09:23:13.558Z,170.17
2023-01-17T09:24:13.557Z,168.97
2023-01-17T09:25:13.552Z,168.12
2023-01-17T09:26:13.531Z,171.56
2023-01-17T09:27:13.513Z,175.86
2023-01-17T09:28:13.524Z,180.01
2023-01-17T09:29:13.483Z,185.77
2023-01-17T09:30:14.470Z,190.91
2023-01-17T09:31:14.422Z,195.43
2023-01-17T09:32:14.416Z,198.60
2023-01-17T09:33:13.461Z,199.31
2023-01-17T09:34:13.456Z,199.80
2023-01-17T09:35:13.465Z,196.94
2023-01-17T09:36:14.324Z,198.60
2023-01-17T09:37:13.412Z,195.77
2023-01-17T09:38:13.491Z,190.80
2023-01-17T09:39:13.546Z,188.41
2023-01-17T09:40:14.164Z,183.74
2023-01-17T09:41:14.311Z,185.16
2023-01-17T09:42:13.356Z,183.74
2023-01-17T09:43:13.336Z,180.97
2023-01-17T09:44:13.362Z,180.39
2023-01-17T09:45:13.330Z,179.62
2023-01-17T09:46:13.383Z,175.13
2023-01-17T09:47:13.309Z,175.86
2023-01-17T09:48:13.321Z,173.15
2023-01-17T09:49:13.322Z,177.16
2023-01-17T09:50:13.291Z,175.31
2023-01-17T09:51:13.331Z,174.77
2023-01-17T09:52:13.336Z,173.86
2023-01-17T09:53:13.328Z,175.13
2023-01-17T09:54:13.335Z,177.53
2023-01-17T09:55:13.327Z,180.39
2023-01-17T09:56:13.338Z,181.95
2023-01-17T09:57:13.181Z,184.96
2023-01-17T09:58:13.193Z,187.98
2023-01-17T09:59:15.410Z,188.62
2023-01-17T10:00:13.257Z,190.47
2023-01-17T10:01:13.420Z,193.48
2023-01-17T10:02:13.481Z,194.28
2023-01-17T10:03:13.270Z,194.85
2023-01-17T10:04:14.736Z,197.76
2023-01-17T10:05:13.136Z,202.12
2023-01-17T10:06:13.092Z,203.99
2023-01-17T10:07:13.107Z,209.95
2023-01-17T10:08:13.068Z,216.83
2023-01-17T10:09:13.043Z,222.38
2023-01-17T10:10:13.332Z,224.34
2023-01-17T10:11:13.003Z,224.49
2023-01-17T10:12:13.029Z,233.20
2023-01-17T10:13:12.998Z,244.41
2023-01-17T10:14:12.989Z,251.47
2023-01-17T10:15:12.981Z,253.59
2023-01-17T10:16:12.973Z,256.35
2023-01-17T10:17:12.951Z,262.66
2023-01-17T10:18:28.838Z,272.18
2023-01-17T10:19:14.356Z,276.97
2023-01-17T10:20:12.966Z,268.20
2023-01-17T10:21:13.465Z,265.40
2023-01-17T10:22:12.896Z,268.42
2023-01-17T10:23:12.879Z,271.28
2023-01-17T10:24:12.876Z,268.42
2023-01-17T10:25:12.851Z,266.04
2023-01-17T10:26:13.038Z,260.18
2023-01-17T10:27:12.833Z,262.24
2023-01-17T10:28:12.847Z,265.40
2023-01-17T10:29:12.813Z,268.20
2023-01-17T10:30:12.807Z,270.62
2023-01-17T10:31:12.878Z,274.44
2023-01-17T10:32:12.799Z,280.02
2023-01-17T10:33:12.899Z,286.07
2023-01-17T10:34:13.304Z,297.13
2023-01-17T10:35:14.195Z,304.80
2023-01-17T10:36:12.744Z,307.64
2023-01-17T10:37:12.709Z,309.66
2023-01-17T10:38:12.720Z,318.30
2023-01-17T10:39:12.754Z,335.08
2023-01-17T10:40:12.716Z,348.50
2023-01-17T10:41:12.677Z,354.86
2023-01-17T10:42:13.018Z,355.24
2023-01-17T10:43:12.668Z,356.39
2023-01-17T10:44:12.649Z,344.51
2023-01-17T10:45:12.643Z,327.12
2023-01-17T10:46:12.769Z,318.92
2023-01-17T10:47:12.609Z,322.02
2023-01-17T10:48:12.614Z,323.28
2023-01-17T10:49:12.581Z,322.02
2023-01-17T10:50:12.573Z,327.45
2023-01-17T10:51:12.581Z,337.47
2023-01-17T10:52:12.591Z,343.43
2023-01-17T10:53:12.534Z,344.15
2023-01-17T10:54:12.554Z,340.95
2023-01-17T10:55:12.528Z,343.43
2023-01-17T10:56:12.519Z,347.04
2023-01-17T10:57:12.525Z,349.98
2023-01-17T10:58:12.754Z,350.72
2023-01-17T10:59:12.749Z,351.10
2023-01-17T11:00:12.828Z,347.40
2023-01-17T11:01:12.880Z,339.90
2023-01-17T11:02:12.551Z,333.39
2023-01-17T11:03:12.536Z,326.80
2023-01-17T11:04:12.439Z,336.10
2023-01-17T11:05:12.403Z,344.51
2023-01-17T11:06:12.397Z,344.87
2023-01-17T11:07:12.393Z,345.23
2023-01-17T11:08:12.387Z,354.48
2023-01-17T11:09:12.350Z,360.28
2023-01-17T11:10:12.364Z,363.45
2023-01-17T11:11:12.327Z,365.05
2023-01-17T11:12:12.359Z,363.85
2023-01-17T11:13:12.308Z,366.67
2023-01-17T11:14:12.382Z,371.20
2023-01-17T11:15:12.483Z,384.78
2023-01-17T11:16:12.303Z,397.77
2023-01-17T11:17:12.300Z,411.15
2023-01-17T11:18:12.269Z,419.89
2023-01-17T11:19:12.390Z,419.37
2023-01-17T11:20:12.396Z,419.63
2023-01-17T11:21:12.376Z,424.40
2023-01-17T11:22:12.396Z,431.77
2023-01-17T11:23:12.380Z,440.83
2023-01-17T11:24:12.175Z,447.89
2023-01-17T11:25:12.163Z,460.16
2023-01-17T11:26:12.166Z,473.45
2023-01-17T11:27:12.226Z,493.27
2023-01-17T11:28:12.147Z,498.39
2023-01-17T11:29:12.149Z,508.58
2023-01-17T11:30:12.124Z,524.05
2023-01-17T11:31:12.126Z,535.75
2023-01-17T11:32:12.110Z,561.73
2023-01-17T11:33:12.083Z,585.73
2023-01-17T11:34:12.084Z,608.54
2023-01-17T11:35:12.398Z,619.20
2023-01-17T11:36:12.051Z,638.62
2023-01-17T11:37:12.074Z,650.37
2023-01-17T11:38:13.497Z,666.50
2023-01-17T11:39:12.255Z,692.61
2023-01-17T11:40:12.025Z,701.28
2023-01-17T11:41:12.123Z,714.71
2023-01-17T11:42:12.418Z,731.84
2023-01-17T11:43:11.982Z,739.90
2023-01-17T11:44:11.965Z,747.31
2023-01-17T11:45:11.976Z,751.40
2023-01-17T11:46:11.969Z,760.32
2023-01-17T11:47:11.918Z,773.43
2023-01-17T11:48:12.037Z,777.91
2023-01-17T11:49:11.897Z,780.16
2023-01-17T11:50:11.907Z,779.71
2023-01-17T11:51:11.905Z,772.10
2023-01-17T11:52:11.900Z,766.82
2023-01-17T11:53:11.838Z,758.17
2023-01-17T11:54:11.847Z,743.17
2023-01-17T11:55:11.811Z,737.46
2023-01-17T11:56:11.839Z,739.08
2023-01-17T11:57:11.801Z,735.85
2023-01-17T11:58:11.807Z,743.99
2023-01-17T11:59:11.782Z,756.47
2023-01-17T12:00:11.797Z,759.89
2023-01-17T12:01:11.818Z,769.01
2023-01-17T12:02:13.188Z,784.71
2023-01-17T12:03:11.719Z,788.86
2023-01-17T12:04:11.727Z,782.89
2023-01-17T12:05:11.740Z,781.98
2023-01-17T12:06:12.389Z,784.26
2023-01-17T12:07:11.703Z,790.25
2023-01-17T12:08:11.685Z,792.58
2023-01-17T12:09:11.672Z,785.17
2023-01-17T12:10:11.674Z,777.91
2023-01-17T12:11:11.652Z,777.91
2023-01-17T12:12:11.669Z,782.89
2023-01-17T12:13:11.616Z,784.71
2023-01-17T12:14:11.620Z,789.32
2023-01-17T12:15:11.630Z,802.98
2023-01-17T12:16:11.626Z,807.32
2023-01-17T12:17:11.599Z,810.24
2023-01-17T12:18:11.569Z,817.63
2023-01-17T12:19:12.437Z,825.66
2023-01-17T12:20:11.541Z,825.15
2023-01-17T12:21:12.448Z,820.12
2023-01-17T12:22:12.417Z,820.12
2023-01-17T12:23:11.568Z,820.12
2023-01-17T12:24:11.500Z,815.65
2023-01-17T12:25:11.501Z,820.12
2023-01-17T12:26:11.490Z,818.13
2023-01-17T12:27:11.478Z,813.67
2023-01-17T12:28:11.479Z,805.87
2023-01-17T12:29:11.448Z,802.51
2023-01-17T12:30:11.419Z,812.20
2023-01-17T12:31:11.538Z,818.62
2023-01-17T12:32:11.471Z,833.33